sensor_id;sensor_type;location;lat;lon;timestamp;P1;durP1;ratioP1;P2;durP2;ratioP2
8556;SDS011;4316;53.840;10.762;2023-01-29T00:01:26;23.60;;;17.73;;
8556;SDS011;4316;53.840;10.762;2023-01-29T00:03:52;26.87;;;18.53;;
8556;SDS011;4316;53.840;10.762;2023-01-29T00:06:18;24.70;;;18.57;;
8556;SDS011;4316;53.840;10.762;2023-01-29T00:08:43;26.87;;;19.60;;
8556;SDS011;4316;53.840;10.762;2023-01-29T00:11:09;18.70;;;16.67;;
8556;SDS011;4316;53.840;10.762;2023-01-29T00:13:35;23.63;;;18.60;;
8556;SDS011;4316;53.840;10.762;2023-01-29T00:16:00;26.13;;;18.37;;
8556;SDS011;4316;53.840;10.762;2023-01-29T00:18:27;22.20;;;17.03;;
8556;SDS011;4316;53.840;10.762;2023-01-29T00:20:54;25.87;;;17.13;;
8556;SDS011;4316;53.840;10.762;2023-01-29T00:23:20;23.50;;;17.40;;
8556;SDS011;4316;53.840;10.762;2023-01-29T00:25:46;27.33;;;16.87;;
8556;SDS011;4316;53.840;10.762;2023-01-29T00:28:11;22.17;;;17.83;;
8556;SDS011;4316;53.840;10.762;2023-01-29T00:30:37;21.43;;;16.50;;
8556;SDS011;4316;53.840;10.762;2023-01-29T00:33:03;25.27;;;17.00;;
8556;SDS011;4316;53.840;10.762;2023-01-29T00:35:30;25.60;;;15.73;;
8556;SDS011;4316;53.840;10.762;2023-01-29T00:37:56;23.47;;;16.17;;
8556;SDS011;4316;53.840;10.762;2023-01-29T00:40:22;22.47;;;16.73;;
8556;SDS011;4316;53.840;10.762;2023-01-29T00:42:49;23.47;;;15.43;;
8556;SDS011;4316;53.840;10.762;2023-01-29T00:45:33;22.27;;;15.73;;
8556;SDS011;4316;53.840;10.762;2023-01-29T00:48:01;19.37;;;15.17;;
8556;SDS011;4316;53.840;10.762;2023-01-29T00:50:30;21.13;;;15.33;;
8556;SDS011;4316;53.840;10.762;2023-01-29T00:52:56;21.60;;;15.13;;
8556;SDS011;4316;53.840;10.762;2023-01-29T00:55:22;15.67;;;12.90;;
8556;SDS011;4316;53.840;10.762;2023-01-29T00:57:48;19.30;;;13.70;;
8556;SDS011;4316;53.840;10.762;2023-01-29T01:00:14;18.87;;;14.70;;
8556;SDS011;4316;53.840;10.762;2023-01-29T01:02:43;16.47;;;12.07;;
8556;SDS011;4316;53.840;10.762;2023-01-29T01:05:27;25.30;;;14.63;;
8556;SDS011;4316;53.840;10.762;2023-01-29T01:07:54;19.67;;;15.00;;
8556;SDS011;4316;53.840;10.762;2023-01-29T01:10:26;17.97;;;13.73;;
8556;SDS011;4316;53.840;10.762;2023-01-29T01:12:55;18.87;;;13.47;;
8556;SDS011;4316;53.840;10.762;2023-01-29T01:15:23;20.60;;;13.60;;
8556;SDS011;4316;53.840;10.762;2023-01-29T01:17:51;19.33;;;13.50;;
8556;SDS011;4316;53.840;10.762;2023-01-29T01:20:18;17.13;;;14.53;;
8556;SDS011;4316;53.840;10.762;2023-01-29T01:22:44;16.03;;;13.70;;
8556;SDS011;4316;53.840;10.762;2023-01-29T01:25:09;20.27;;;14.87;;
8556;SDS011;4316;53.840;10.762;2023-01-29T01:27:35;14.80;;;13.23;;
8556;SDS011;4316;53.840;10.762;2023-01-29T01:30:05;20.20;;;13.27;;
8556;SDS011;4316;53.840;10.762;2023-01-29T01:32:32;14.57;;;13.07;;
8556;SDS011;4316;53.840;10.762;2023-01-29T01:34:58;15.20;;;13.17;;
8556;SDS011;4316;53.840;10.762;2023-01-29T01:37:24;15.63;;;13.30;;
8556;SDS011;4316;53.840;10.762;2023-01-29T01:39:49;12.43;;;10.97;;
8556;SDS011;4316;53.840;10.762;2023-01-29T01:42:15;15.30;;;12.17;;
8556;SDS011;4316;53.840;10.762;2023-01-29T01:44:57;13.77;;;10.80;;
8556;SDS011;4316;53.840;10.762;2023-01-29T01:50:00;15.50;;;12.03;;
8556;SDS011;4316;53.840;10.762;2023-01-29T01:52:32;15.47;;;12.03;;
8556;SDS011;4316;53.840;10.762;2023-01-29T01:55:01;14.50;;;11.27;;
8556;SDS011;4316;53.840;10.762;2023-01-29T01:57:28;13.73;;;11.70;;
8556;SDS011;4316;53.840;10.762;2023-01-29T01:59:56;16.50;;;11.07;;
8556;SDS011;4316;53.840;10.762;2023-01-29T02:02:38;17.27;;;12.20;;
8556;SDS011;4316;53.840;10.762;2023-01-29T02:05:26;18.03;;;12.37;;
8556;SDS011;4316;53.840;10.762;2023-01-29T02:08:11;13.87;;;11.07;;
8556;SDS011;4316;53.840;10.762;2023-01-29T02:10:58;14.80;;;10.90;;
8556;SDS011;4316;53.840;10.762;2023-01-29T02:13:25;11.63;;;10.43;;
8556;SDS011;4316;53.840;10.762;2023-01-29T02:15:51;17.97;;;11.53;;
8556;SDS011;4316;53.840;10.762;2023-01-29T02:18:17;14.10;;;10.43;;
8556;SDS011;4316;53.840;10.762;2023-01-29T02:20:55;14.67;;;11.50;;
8556;SDS011;4316;53.840;10.762;2023-01-29T02:24:20;15.50;;;11.63;;
8556;SDS011;4316;53.840;10.762;2023-01-29T02:29:45;16.83;;;11.23;;
8556;SDS011;4316;53.840;10.762;2023-01-29T02:45:41;16.87;;;11.30;;
8556;SDS011;4316;53.840;10.762;2023-01-29T02:48:25;18.23;;;11.83;;
8556;SDS011;4316;53.840;10.762;2023-01-29T02:51:03;19.23;;;12.30;;
8556;SDS011;4316;53.840;10.762;2023-01-29T02:53:40;20.13;;;11.77;;
8556;SDS011;4316;53.840;10.762;2023-01-29T02:56:20;18.90;;;10.90;;
8556;SDS011;4316;53.840;10.762;2023-01-29T02:59:04;17.47;;;13.03;;
8556;SDS011;4316;53.840;10.762;2023-01-29T03:01:37;18.37;;;12.00;;
8556;SDS011;4316;53.840;10.762;2023-01-29T03:04:11;18.27;;;11.77;;
8556;SDS011;4316;53.840;10.762;2023-01-29T03:06:41;22.97;;;12.53;;
8556;SDS011;4316;53.840;10.762;2023-01-29T03:09:14;20.40;;;11.87;;
8556;SDS011;4316;53.840;10.762;2023-01-29T03:11:46;16.17;;;11.73;;
8556;SDS011;4316;53.840;10.762;2023-01-29T03:14:37;14.13;;;10.17;;
8556;SDS011;4316;53.840;10.762;2023-01-29T03:17:25;14.57;;;10.97;;
8556;SDS011;4316;53.840;10.762;2023-01-29T03:19:58;17.33;;;11.33;;
8556;SDS011;4316;53.840;10.762;2023-01-29T03:22:24;17.67;;;11.17;;
8556;SDS011;4316;53.840;10.762;2023-01-29T03:24:54;20.00;;;10.47;;
8556;SDS011;4316;53.840;10.762;2023-01-29T03:27:44;12.57;;;9.63;;
8556;SDS011;4316;53.840;10.762;2023-01-29T03:30:40;10.80;;;8.90;;
8556;SDS011;4316;53.840;10.762;2023-01-29T03:33:49;17.00;;;10.93;;
8556;SDS011;4316;53.840;10.762;2023-01-29T03:39:15;19.37;;;9.93;;
8556;SDS011;4316;53.840;10.762;2023-01-29T03:44:27;13.43;;;10.23;;
8556;SDS011;4316;53.840;10.762;2023-01-29T03:47:16;14.43;;;10.67;;
8556;SDS011;4316;53.840;10.762;2023-01-29T03:49:58;16.70;;;10.90;;
8556;SDS011;4316;53.840;10.762;2023-01-29T03:55:19;18.07;;;11.73;;
8556;SDS011;4316;53.840;10.762;2023-01-29T03:57:59;14.80;;;10.03;;
8556;SDS011;4316;53.840;10.762;2023-01-29T04:00:33;13.60;;;10.13;;
8556;SDS011;4316;53.840;10.762;2023-01-29T04:03:08;14.67;;;9.87;;
8556;SDS011;4316;53.840;10.762;2023-01-29T04:05:43;17.17;;;10.17;;
8556;SDS011;4316;53.840;10.762;2023-01-29T04:08:26;18.23;;;11.90;;
8556;SDS011;4316;53.840;10.762;2023-01-29T04:10:58;15.70;;;10.63;;
8556;SDS011;4316;53.840;10.762;2023-01-29T04:13:33;18.20;;;10.97;;
8556;SDS011;4316;53.840;10.762;2023-01-29T04:16:00;19.50;;;11.17;;
8556;SDS011;4316;53.840;10.762;2023-01-29T04:18:57;14.97;;;10.73;;
8556;SDS011;4316;53.840;10.762;2023-01-29T04:21:28;15.90;;;10.43;;
8556;SDS011;4316;53.840;10.762;2023-01-29T04:23:56;17.63;;;11.13;;
8556;SDS011;4316;53.840;10.762;2023-01-29T04:34:41;18.33;;;10.57;;
8556;SDS011;4316;53.840;10.762;2023-01-29T04:37:22;16.77;;;10.67;;
8556;SDS011;4316;53.840;10.762;2023-01-29T04:54:33;15.30;;;10.13;;
8556;SDS011;4316;53.840;10.762;2023-01-29T05:00:28;18.23;;;8.87;;
8556;SDS011;4316;53.840;10.762;2023-01-29T05:02:59;18.47;;;10.47;;
8556;SDS011;4316;53.840;10.762;2023-01-29T05:05:25;17.30;;;10.97;;
8556;SDS011;4316;53.840;10.762;2023-01-29T05:07:52;22.47;;;11.30;;
8556;SDS011;4316;53.840;10.762;2023-01-29T05:10:19;20.83;;;10.77;;
8556;SDS011;4316;53.840;10.762;2023-01-29T05:12:48;15.33;;;11.07;;
8556;SDS011;4316;53.840;10.762;2023-01-29T05:15:20;15.47;;;10.63;;
8556;SDS011;4316;53.840;10.762;2023-01-29T05:17:49;18.57;;;11.13;;
8556;SDS011;4316;53.840;10.762;2023-01-29T05:20:17;17.03;;;10.67;;
8556;SDS011;4316;53.840;10.762;2023-01-29T05:22:44;19.67;;;11.20;;
8556;SDS011;4316;53.840;10.762;2023-01-29T05:25:25;19.10;;;10.50;;
8556;SDS011;4316;53.840;10.762;2023-01-29T05:27:53;18.70;;;11.40;;
8556;SDS011;4316;53.840;10.762;2023-01-29T05:30:36;22.47;;;9.43;;
8556;SDS011;4316;53.840;10.762;2023-01-29T05:33:03;19.40;;;10.70;;
8556;SDS011;4316;53.840;10.762;2023-01-29T05:35:33;18.30;;;10.43;;
8556;SDS011;4316;53.840;10.762;2023-01-29T05:37:59;14.73;;;10.07;;
8556;SDS011;4316;53.840;10.762;2023-01-29T05:40:24;13.93;;;9.97;;
8556;SDS011;4316;53.840;10.762;2023-01-29T05:42:50;16.67;;;10.80;;
8556;SDS011;4316;53.840;10.762;2023-01-29T05:45:16;20.13;;;10.63;;
8556;SDS011;4316;53.840;10.762;2023-01-29T05:47:42;14.77;;;9.60;;
8556;SDS011;4316;53.840;10.762;2023-01-29T05:50:08;13.67;;;9.30;;
8556;SDS011;4316;53.840;10.762;2023-01-29T05:52:34;12.27;;;9.10;;
8556;SDS011;4316;53.840;10.762;2023-01-29T05:55:00;12.93;;;9.20;;
8556;SDS011;4316;53.840;10.762;2023-01-29T05:57:25;14.20;;;8.07;;
8556;SDS011;4316;53.840;10.762;2023-01-29T05:59:51;12.97;;;7.03;;
8556;SDS011;4316;53.840;10.762;2023-01-29T06:02:16;9.37;;;8.10;;
8556;SDS011;4316;53.840;10.762;2023-01-29T06:04:42;8.00;;;7.07;;
8556;SDS011;4316;53.840;10.762;2023-01-29T06:07:08;7.77;;;6.07;;
8556;SDS011;4316;53.840;10.762;2023-01-29T06:09:33;9.23;;;6.57;;
8556;SDS011;4316;53.840;10.762;2023-01-29T06:11:59;9.57;;;7.27;;
8556;SDS011;4316;53.840;10.762;2023-01-29T06:14:24;6.53;;;5.57;;
8556;SDS011;4316;53.840;10.762;2023-01-29T06:16:50;9.47;;;6.37;;
8556;SDS011;4316;53.840;10.762;2023-01-29T06:19:15;6.67;;;6.00;;
8556;SDS011;4316;53.840;10.762;2023-01-29T06:21:42;9.37;;;5.97;;
8556;SDS011;4316;53.840;10.762;2023-01-29T06:24:08;7.00;;;6.07;;
8556;SDS011;4316;53.840;10.762;2023-01-29T06:26:33;6.60;;;5.93;;
8556;SDS011;4316;53.840;10.762;2023-01-29T06:28:59;4.27;;;3.90;;
8556;SDS011;4316;53.840;10.762;2023-01-29T06:31:24;6.90;;;5.60;;
8556;SDS011;4316;53.840;10.762;2023-01-29T06:33:50;6.37;;;5.77;;
8556;SDS011;4316;53.840;10.762;2023-01-29T06:36:15;6.23;;;5.63;;
8556;SDS011;4316;53.840;10.762;2023-01-29T06:38:41;6.13;;;5.53;;
8556;SDS011;4316;53.840;10.762;2023-01-29T06:41:07;7.53;;;6.53;;
8556;SDS011;4316;53.840;10.762;2023-01-29T06:43:34;4.40;;;3.67;;
8556;SDS011;4316;53.840;10.762;2023-01-29T06:46:00;8.37;;;5.00;;
8556;SDS011;4316;53.840;10.762;2023-01-29T06:48:25;7.63;;;6.47;;
8556;SDS011;4316;53.840;10.762;2023-01-29T06:50:51;11.23;;;6.20;;
8556;SDS011;4316;53.840;10.762;2023-01-29T06:53:19;7.80;;;6.37;;
8556;SDS011;4316;53.840;10.762;2023-01-29T06:55:51;8.80;;;5.53;;
8556;SDS011;4316;53.840;10.762;2023-01-29T06:58:17;9.70;;;6.87;;
8556;SDS011;4316;53.840;10.762;2023-01-29T07:00:43;7.37;;;6.53;;
8556;SDS011;4316;53.840;10.762;2023-01-29T07:03:09;7.90;;;6.47;;
8556;SDS011;4316;53.840;10.762;2023-01-29T07:05:35;11.07;;;6.03;;
8556;SDS011;4316;53.840;10.762;2023-01-29T07:08:01;8.20;;;6.50;;
8556;SDS011;4316;53.840;10.762;2023-01-29T07:10:27;10.40;;;6.57;;
8556;SDS011;4316;53.840;10.762;2023-01-29T07:12:52;7.77;;;6.87;;
8556;SDS011;4316;53.840;10.762;2023-01-29T07:15:18;7.13;;;5.90;;
8556;SDS011;4316;53.840;10.762;2023-01-29T07:17:55;9.03;;;6.67;;
8556;SDS011;4316;53.840;10.762;2023-01-29T07:20:21;11.83;;;7.17;;
8556;SDS011;4316;53.840;10.762;2023-01-29T07:22:47;7.57;;;6.63;;
8556;SDS011;4316;53.840;10.762;2023-01-29T07:25:13;11.90;;;7.33;;
8556;SDS011;4316;53.840;10.762;2023-01-29T07:27:38;10.57;;;7.67;;
8556;SDS011;4316;53.840;10.762;2023-01-29T07:30:04;12.33;;;8.33;;
8556;SDS011;4316;53.840;10.762;2023-01-29T07:32:30;7.40;;;6.63;;
8556;SDS011;4316;53.840;10.762;2023-01-29T07:34:56;9.10;;;6.57;;
8556;SDS011;4316;53.840;10.762;2023-01-29T07:37:21;8.87;;;6.57;;
8556;SDS011;4316;53.840;10.762;2023-01-29T07:39:47;13.73;;;8.37;;
8556;SDS011;4316;53.840;10.762;2023-01-29T07:42:12;11.53;;;8.10;;
8556;SDS011;4316;53.840;10.762;2023-01-29T07:44:38;14.03;;;8.70;;
8556;SDS011;4316;53.840;10.762;2023-01-29T07:47:03;13.90;;;8.30;;
8556;SDS011;4316;53.840;10.762;2023-01-29T07:49:29;11.40;;;7.87;;
8556;SDS011;4316;53.840;10.762;2023-01-29T07:51:54;13.47;;;7.67;;
8556;SDS011;4316;53.840;10.762;2023-01-29T07:54:20;10.57;;;8.47;;
8556;SDS011;4316;53.840;10.762;2023-01-29T07:56:45;13.73;;;7.70;;
8556;SDS011;4316;53.840;10.762;2023-01-29T07:59:11;11.40;;;8.53;;
8556;SDS011;4316;53.840;10.762;2023-01-29T08:01:36;10.67;;;8.80;;
8556;SDS011;4316;53.840;10.762;2023-01-29T08:04:02;10.10;;;5.90;;
8556;SDS011;4316;53.840;10.762;2023-01-29T08:06:28;10.97;;;8.30;;
8556;SDS011;4316;53.840;10.762;2023-01-29T08:08:53;11.77;;;8.33;;
8556;SDS011;4316;53.840;10.762;2023-01-29T08:11:21;14.30;;;8.23;;
8556;SDS011;4316;53.840;10.762;2023-01-29T08:13:47;11.43;;;8.33;;
8556;SDS011;4316;53.840;10.762;2023-01-29T08:16:12;9.90;;;7.63;;
8556;SDS011;4316;53.840;10.762;2023-01-29T08:18:38;13.57;;;8.67;;
8556;SDS011;4316;53.840;10.762;2023-01-29T08:21:08;11.23;;;8.03;;
8556;SDS011;4316;53.840;10.762;2023-01-29T08:23:33;12.87;;;8.13;;
8556;SDS011;4316;53.840;10.762;2023-01-29T08:26:01;11.73;;;8.13;;
8556;SDS011;4316;53.840;10.762;2023-01-29T08:28:27;11.50;;;8.00;;
8556;SDS011;4316;53.840;10.762;2023-01-29T08:30:52;8.67;;;7.70;;
8556;SDS011;4316;53.840;10.762;2023-01-29T08:33:18;10.23;;;7.50;;
8556;SDS011;4316;53.840;10.762;2023-01-29T08:35:47;13.83;;;8.27;;
8556;SDS011;4316;53.840;10.762;2023-01-29T08:38:14;13.63;;;8.90;;
8556;SDS011;4316;53.840;10.762;2023-01-29T08:40:40;13.70;;;8.90;;
8556;SDS011;4316;53.840;10.762;2023-01-29T08:43:06;9.67;;;8.20;;
8556;SDS011;4316;53.840;10.762;2023-01-29T08:45:33;13.23;;;8.77;;
8556;SDS011;4316;53.840;10.762;2023-01-29T08:48:00;10.93;;;8.10;;
8556;SDS011;4316;53.840;10.762;2023-01-29T08:50:26;12.87;;;8.47;;
8556;SDS011;4316;53.840;10.762;2023-01-29T08:52:52;12.40;;;8.53;;
8556;SDS011;4316;53.840;10.762;2023-01-29T08:55:22;13.43;;;8.60;;
8556;SDS011;4316;53.840;10.762;2023-01-29T08:57:48;9.17;;;8.13;;
8556;SDS011;4316;53.840;10.762;2023-01-29T09:00:14;16.60;;;9.83;;
8556;SDS011;4316;53.840;10.762;2023-01-29T09:02:39;13.00;;;8.93;;
8556;SDS011;4316;53.840;10.762;2023-01-29T09:05:05;13.73;;;9.73;;
8556;SDS011;4316;53.840;10.762;2023-01-29T09:07:31;12.43;;;8.80;;
8556;SDS011;4316;53.840;10.762;2023-01-29T09:09:57;12.20;;;9.10;;
8556;SDS011;4316;53.840;10.762;2023-01-29T09:12:22;12.50;;;9.50;;
8556;SDS011;4316;53.840;10.762;2023-01-29T09:14:48;13.33;;;9.83;;
8556;SDS011;4316;53.840;10.762;2023-01-29T09:17:14;12.10;;;9.23;;
8556;SDS011;4316;53.840;10.762;2023-01-29T09:19:39;10.70;;;8.73;;
8556;SDS011;4316;53.840;10.762;2023-01-29T09:22:05;11.63;;;8.57;;
8556;SDS011;4316;53.840;10.762;2023-01-29T09:24:30;14.00;;;10.13;;
8556;SDS011;4316;53.840;10.762;2023-01-29T09:26:56;12.53;;;9.53;;
8556;SDS011;4316;53.840;10.762;2023-01-29T09:29:22;12.60;;;10.13;;
8556;SDS011;4316;53.840;10.762;2023-01-29T09:31:48;15.73;;;11.13;;
8556;SDS011;4316;53.840;10.762;2023-01-29T09:34:13;15.43;;;11.07;;
8556;SDS011;4316;53.840;10.762;2023-01-29T09:36:39;13.23;;;11.27;;
8556;SDS011;4316;53.840;10.762;2023-01-29T09:39:04;13.00;;;9.87;;
8556;SDS011;4316;53.840;10.762;2023-01-29T09:41:33;12.37;;;8.97;;
8556;SDS011;4316;53.840;10.762;2023-01-29T09:44:23;11.67;;;9.40;;
8556;SDS011;4316;53.840;10.762;2023-01-29T09:46:56;11.67;;;10.13;;
8556;SDS011;4316;53.840;10.762;2023-01-29T09:49:34;17.90;;;11.30;;
8556;SDS011;4316;53.840;10.762;2023-01-29T09:54:49;13.00;;;10.73;;
8556;SDS011;4316;53.840;10.762;2023-01-29T10:00:17;13.87;;;11.13;;
8556;SDS011;4316;53.840;10.762;2023-01-29T10:03:02;21.27;;;11.63;;
8556;SDS011;4316;53.840;10.762;2023-01-29T10:12:00;16.33;;;11.40;;
8556;SDS011;4316;53.840;10.762;2023-01-29T10:14:36;14.57;;;11.10;;
8556;SDS011;4316;53.840;10.762;2023-01-29T10:22:47;21.80;;;13.13;;
8556;SDS011;4316;53.840;10.762;2023-01-29T10:25:40;17.37;;;12.60;;
8556;SDS011;4316;53.840;10.762;2023-01-29T10:28:26;17.30;;;12.67;;
8556;SDS011;4316;53.840;10.762;2023-01-29T10:31:03;14.77;;;10.83;;
8556;SDS011;4316;53.840;10.762;2023-01-29T10:33:40;21.87;;;15.73;;
8556;SDS011;4316;53.840;10.762;2023-01-29T10:36:11;20.73;;;16.30;;
8556;SDS011;4316;53.840;10.762;2023-01-29T10:38:45;20.63;;;16.57;;
8556;SDS011;4316;53.840;10.762;2023-01-29T10:41:21;22.07;;;15.40;;
8556;SDS011;4316;53.840;10.762;2023-01-29T10:44:04;20.23;;;14.40;;
8556;SDS011;4316;53.840;10.762;2023-01-29T11:00:47;12.73;;;10.07;;
8556;SDS011;4316;53.840;10.762;2023-01-29T11:03:24;21.80;;;15.70;;
8556;SDS011;4316;53.840;10.762;2023-01-29T11:05:55;20.17;;;15.27;;
8556;SDS011;4316;53.840;10.762;2023-01-29T11:11:46;19.40;;;14.90;;
8556;SDS011;4316;53.840;10.762;2023-01-29T11:14:35;23.97;;;17.30;;
8556;SDS011;4316;53.840;10.762;2023-01-29T11:17:16;19.67;;;15.90;;
8556;SDS011;4316;53.840;10.762;2023-01-29T11:19:44;23.53;;;15.53;;
8556;SDS011;4316;53.840;10.762;2023-01-29T11:22:22;24.80;;;17.23;;
8556;SDS011;4316;53.840;10.762;2023-01-29T11:25:09;24.57;;;18.70;;
8556;SDS011;4316;53.840;10.762;2023-01-29T11:27:44;24.13;;;18.70;;
8556;SDS011;4316;53.840;10.762;2023-01-29T11:30:18;26.07;;;17.33;;
8556;SDS011;4316;53.840;10.762;2023-01-29T11:35:46;22.63;;;17.00;;
8556;SDS011;4316;53.840;10.762;2023-01-29T11:40:40;22.87;;;17.17;;
8556;SDS011;4316;53.840;10.762;2023-01-29T11:45:52;19.97;;;15.40;;
8556;SDS011;4316;53.840;10.762;2023-01-29T11:48:20;23.83;;;17.60;;
8556;SDS011;4316;53.840;10.762;2023-01-29T11:50:52;24.73;;;16.97;;
8556;SDS011;4316;53.840;10.762;2023-01-29T11:53:33;19.73;;;14.73;;
8556;SDS011;4316;53.840;10.762;2023-01-29T11:56:21;26.40;;;18.07;;
8556;SDS011;4316;53.840;10.762;2023-01-29T11:58:50;27.83;;;16.87;;
8556;SDS011;4316;53.840;10.762;2023-01-29T12:01:22;24.13;;;17.77;;
8556;SDS011;4316;53.840;10.762;2023-01-29T12:03:55;23.70;;;15.67;;
8556;SDS011;4316;53.840;10.762;2023-01-29T12:06:21;22.77;;;16.83;;
8556;SDS011;4316;53.840;10.762;2023-01-29T12:08:56;29.00;;;16.90;;
8556;SDS011;4316;53.840;10.762;2023-01-29T12:11:28;22.97;;;17.80;;
8556;SDS011;4316;53.840;10.762;2023-01-29T12:13:56;23.23;;;18.37;;
8556;SDS011;4316;53.840;10.762;2023-01-29T12:16:28;23.77;;;17.77;;
8556;SDS011;4316;53.840;10.762;2023-01-29T12:19:08;25.23;;;17.27;;
8556;SDS011;4316;53.840;10.762;2023-01-29T12:21:52;25.20;;;17.33;;
8556;SDS011;4316;53.840;10.762;2023-01-29T12:24:30;17.70;;;11.97;;
8556;SDS011;4316;53.840;10.762;2023-01-29T12:29:51;19.47;;;14.33;;
8556;SDS011;4316;53.840;10.762;2023-01-29T12:35:22;17.67;;;14.70;;
8556;SDS011;4316;53.840;10.762;2023-01-29T12:38:01;22.87;;;16.23;;
8556;SDS011;4316;53.840;10.762;2023-01-29T12:40:37;23.37;;;16.60;;
8556;SDS011;4316;53.840;10.762;2023-01-29T12:43:12;22.80;;;17.50;;
8556;SDS011;4316;53.840;10.762;2023-01-29T12:45:41;25.57;;;16.77;;
8556;SDS011;4316;53.840;10.762;2023-01-29T12:48:10;26.00;;;17.73;;
8556;SDS011;4316;53.840;10.762;2023-01-29T12:50:38;29.07;;;18.13;;
8556;SDS011;4316;53.840;10.762;2023-01-29T12:53:23;22.47;;;17.07;;
8556;SDS011;4316;53.840;10.762;2023-01-29T12:55:58;27.37;;;19.13;;
8556;SDS011;4316;53.840;10.762;2023-01-29T12:58:37;28.43;;;19.77;;
8556;SDS011;4316;53.840;10.762;2023-01-29T13:04:02;27.60;;;18.47;;
8556;SDS011;4316;53.840;10.762;2023-01-29T13:06:39;28.63;;;18.77;;
8556;SDS011;4316;53.840;10.762;2023-01-29T13:09:14;23.30;;;17.87;;
8556;SDS011;4316;53.840;10.762;2023-01-29T13:11:51;19.33;;;13.97;;
8556;SDS011;4316;53.840;10.762;2023-01-29T13:14:24;19.20;;;14.33;;
8556;SDS011;4316;53.840;10.762;2023-01-29T13:17:01;19.43;;;13.23;;
8556;SDS011;4316;53.840;10.762;2023-01-29T13:19:35;18.87;;;16.07;;
8556;SDS011;4316;53.840;10.762;2023-01-29T13:22:16;23.83;;;17.03;;
8556;SDS011;4316;53.840;10.762;2023-01-29T13:24:51;16.60;;;14.50;;
8556;SDS011;4316;53.840;10.762;2023-01-29T13:27:23;17.77;;;13.80;;
8556;SDS011;4316;53.840;10.762;2023-01-29T13:29:50;20.53;;;15.70;;
8556;SDS011;4316;53.840;10.762;2023-01-29T13:32:24;19.73;;;15.93;;
8556;SDS011;4316;53.840;10.762;2023-01-29T13:34:53;21.27;;;15.93;;
8556;SDS011;4316;53.840;10.762;2023-01-29T13:37:26;21.57;;;14.60;;
8556;SDS011;4316;53.840;10.762;2023-01-29T13:40:06;23.90;;;16.43;;
8556;SDS011;4316;53.840;10.762;2023-01-29T13:42:44;19.17;;;12.73;;
8556;SDS011;4316;53.840;10.762;2023-01-29T13:45:22;17.43;;;13.97;;
8556;SDS011;4316;53.840;10.762;2023-01-29T13:50:35;13.23;;;9.73;;
8556;SDS011;4316;53.840;10.762;2023-01-29T13:53:04;17.63;;;13.13;;
8556;SDS011;4316;53.840;10.762;2023-01-29T13:58:05;20.83;;;15.87;;
8556;SDS011;4316;53.840;10.762;2023-01-29T14:08:01;23.73;;;16.27;;
8556;SDS011;4316;53.840;10.762;2023-01-29T14:10:34;24.83;;;17.47;;
8556;SDS011;4316;53.840;10.762;2023-01-29T14:18:25;20.07;;;16.97;;
8556;SDS011;4316;53.840;10.762;2023-01-29T14:20:53;23.43;;;17.33;;
8556;SDS011;4316;53.840;10.762;2023-01-29T14:26:03;16.03;;;13.27;;
8556;SDS011;4316;53.840;10.762;2023-01-29T14:28:42;22.53;;;16.80;;
8556;SDS011;4316;53.840;10.762;2023-01-29T14:31:26;21.10;;;16.57;;
8556;SDS011;4316;53.840;10.762;2023-01-29T14:34:17;20.97;;;16.57;;
8556;SDS011;4316;53.840;10.762;2023-01-29T14:36:48;24.13;;;16.63;;
8556;SDS011;4316;53.840;10.762;2023-01-29T14:39:19;28.03;;;18.57;;
8556;SDS011;4316;53.840;10.762;2023-01-29T14:41:53;24.20;;;18.33;;
8556;SDS011;4316;53.840;10.762;2023-01-29T14:49:59;25.70;;;18.60;;
8556;SDS011;4316;53.840;10.762;2023-01-29T14:52:28;46.90;;;32.07;;
8556;SDS011;4316;53.840;10.762;2023-01-29T14:55:01;54.50;;;31.17;;
8556;SDS011;4316;53.840;10.762;2023-01-29T14:57:30;22.47;;;17.57;;
8556;SDS011;4316;53.840;10.762;2023-01-29T15:00:00;24.73;;;18.57;;
8556;SDS011;4316;53.840;10.762;2023-01-29T15:05:12;19.67;;;14.73;;
8556;SDS011;4316;53.840;10.762;2023-01-29T15:07:46;25.23;;;18.60;;
8556;SDS011;4316;53.840;10.762;2023-01-29T15:13:19;25.03;;;13.73;;
8556;SDS011;4316;53.840;10.762;2023-01-29T15:16:04;13.70;;;11.60;;
8556;SDS011;4316;53.840;10.762;2023-01-29T15:18:39;21.80;;;17.80;;
8556;SDS011;4316;53.840;10.762;2023-01-29T15:21:13;23.87;;;17.67;;
8556;SDS011;4316;53.840;10.762;2023-01-29T15:23:40;22.77;;;16.40;;
8556;SDS011;4316;53.840;10.762;2023-01-29T15:26:09;22.80;;;17.10;;
8556;SDS011;4316;53.840;10.762;2023-01-29T15:28:36;28.00;;;19.60;;
8556;SDS011;4316;53.840;10.762;2023-01-29T15:31:07;22.50;;;17.47;;
8556;SDS011;4316;53.840;10.762;2023-01-29T15:33:37;23.43;;;18.23;;
8556;SDS011;4316;53.840;10.762;2023-01-29T15:36:11;24.90;;;17.93;;
8556;SDS011;4316;53.840;10.762;2023-01-29T15:38:44;34.60;;;19.53;;
8556;SDS011;4316;53.840;10.762;2023-01-29T15:41:17;23.10;;;18.03;;
8556;SDS011;4316;53.840;10.762;2023-01-29T15:43:48;21.23;;;17.53;;
8556;SDS011;4316;53.840;10.762;2023-01-29T15:46:25;16.43;;;12.27;;
8556;SDS011;4316;53.840;10.762;2023-01-29T15:48:54;26.40;;;20.30;;
8556;SDS011;4316;53.840;10.762;2023-01-29T15:51:21;22.43;;;17.60;;
8556;SDS011;4316;53.840;10.762;2023-01-29T15:53:49;20.53;;;16.17;;
8556;SDS011;4316;53.840;10.762;2023-01-29T15:56:20;22.70;;;18.37;;
8556;SDS011;4316;53.840;10.762;2023-01-29T15:58:52;30.40;;;22.20;;
8556;SDS011;4316;53.840;10.762;2023-01-29T16:01:19;22.87;;;16.80;;
8556;SDS011;4316;53.840;10.762;2023-01-29T16:03:44;32.63;;;19.33;;
8556;SDS011;4316;53.840;10.762;2023-01-29T16:06:14;24.43;;;19.50;;
8556;SDS011;4316;53.840;10.762;2023-01-29T16:08:41;28.40;;;20.20;;
8556;SDS011;4316;53.840;10.762;2023-01-29T16:11:10;18.77;;;12.93;;
8556;SDS011;4316;53.840;10.762;2023-01-29T16:13:38;28.50;;;20.87;;
8556;SDS011;4316;53.840;10.762;2023-01-29T16:18:38;30.23;;;20.50;;
8556;SDS011;4316;53.840;10.762;2023-01-29T16:21:08;28.23;;;19.50;;
8556;SDS011;4316;53.840;10.762;2023-01-29T16:23:40;26.87;;;18.80;;
8556;SDS011;4316;53.840;10.762;2023-01-29T16:26:11;28.60;;;20.33;;
8556;SDS011;4316;53.840;10.762;2023-01-29T16:28:41;30.37;;;20.90;;
8556;SDS011;4316;53.840;10.762;2023-01-29T16:31:07;28.80;;;21.37;;
8556;SDS011;4316;53.840;10.762;2023-01-29T16:33:35;23.63;;;16.50;;
8556;SDS011;4316;53.840;10.762;2023-01-29T16:36:07;28.97;;;21.23;;
8556;SDS011;4316;53.840;10.762;2023-01-29T16:38:40;27.27;;;20.70;;
8556;SDS011;4316;53.840;10.762;2023-01-29T16:43:47;28.17;;;21.23;;
8556;SDS011;4316;53.840;10.762;2023-01-29T16:49:00;30.47;;;22.43;;
8556;SDS011;4316;53.840;10.762;2023-01-29T16:51:32;34.30;;;21.13;;
8556;SDS011;4316;53.840;10.762;2023-01-29T16:54:10;31.97;;;21.83;;
8556;SDS011;4316;53.840;10.762;2023-01-29T16:56:41;27.93;;;22.17;;
8556;SDS011;4316;53.840;10.762;2023-01-29T16:59:11;27.23;;;20.50;;
8556;SDS011;4316;53.840;10.762;2023-01-29T17:01:42;29.20;;;22.53;;
8556;SDS011;4316;53.840;10.762;2023-01-29T17:04:16;37.37;;;24.03;;
8556;SDS011;4316;53.840;10.762;2023-01-29T17:06:43;26.13;;;17.43;;
8556;SDS011;4316;53.840;10.762;2023-01-29T17:09:18;29.60;;;22.33;;
8556;SDS011;4316;53.840;10.762;2023-01-29T17:11:47;30.40;;;21.07;;
8556;SDS011;4316;53.840;10.762;2023-01-29T17:14:18;29.80;;;22.27;;
8556;SDS011;4316;53.840;10.762;2023-01-29T17:19:39;37.50;;;24.27;;
8556;SDS011;4316;53.840;10.762;2023-01-29T17:22:05;32.97;;;23.70;;
8556;SDS011;4316;53.840;10.762;2023-01-29T17:24:32;35.03;;;24.67;;
8556;SDS011;4316;53.840;10.762;2023-01-29T17:27:01;35.03;;;24.83;;
8556;SDS011;4316;53.840;10.762;2023-01-29T17:29:28;37.20;;;25.40;;
8556;SDS011;4316;53.840;10.762;2023-01-29T17:31:55;34.30;;;25.33;;